createdAt,value
2023-01-18T00:00:09.192Z,-22.60
2023-01-18T00:03:16.299Z,-22.39
2023-01-18T00:06:19.993Z,-21.76
2023-01-18T00:09:24.224Z,-21.33
2023-01-18T00:12:28.402Z,-20.42
2023-01-18T00:15:33.450Z,-20.00
2023-01-18T00:18:37.715Z,-20.15
2023-01-18T00:21:42.288Z,-19.26
2023-01-18T00:24:46.532Z,-17.96
2023-01-18T00:27:53.279Z,-17.23
2023-01-18T00:30:58.023Z,-18.23
2023-01-18T00:34:01.954Z,-17.48
2023-01-18T00:37:06.018Z,-16.78
2023-01-18T00:40:11.158Z,-16.21
2023-01-18T00:43:34.659Z,-16.44
2023-01-18T00:46:38.570Z,-16.32
2023-01-18T00:49:42.575Z,-15.68
2023-01-18T00:52:47.330Z,-16.41
2023-01-18T00:55:51.053Z,-15.68
2023-01-18T00:58:55.286Z,-16.12
2023-01-18T01:01:59.698Z,-16.38
2023-01-18T01:05:22.446Z,-15.92
2023-01-18T01:08:26.861Z,-15.75
2023-01-18T01:11:31.070Z,-15.62
2023-01-18T01:14:55.679Z,-14.89
2023-01-18T01:18:17.744Z,-14.36
2023-01-18T01:21:40.148Z,-13.14
2023-01-18T01:25:02.282Z,-12.73
2023-01-18T01:28:06.390Z,-12.17
2023-01-18T01:31:12.825Z,-11.86
2023-01-18T01:34:16.969Z,-12.03
2023-01-18T01:37:20.957Z,-12.07
2023-01-18T01:40:25.154Z,-11.65
2023-01-18T01:43:47.115Z,-12.37
2023-01-18T01:46:57.213Z,-12.03
2023-01-18T01:50:08.667Z,-11.36
2023-01-18T01:53:12.956Z,-12.20
2023-01-18T01:56:18.444Z,-12.73
2023-01-18T01:59:22.922Z,-12.38
2023-01-18T02:02:27.377Z,-11.84
2023-01-18T02:05:37.450Z,-11.19
2023-01-18T02:08:41.711Z,-11.30
2023-01-18T02:11:46.157Z,-12.21
2023-01-18T02:14:50.167Z,-12.01
2023-01-18T02:18:19.688Z,-11.63
2023-01-18T02:21:36.281Z,-12.51
2023-01-18T02:25:04.456Z,-13.17
2023-01-18T02:28:18.060Z,-13.87
2023-01-18T02:31:27.206Z,-13.30
2023-01-18T02:34:42.595Z,-12.22
2023-01-18T02:37:51.196Z,-12.87
2023-01-18T02:41:10.172Z,-12.32
2023-01-18T02:44:37.073Z,-12.59
2023-01-18T02:47:42.230Z,-11.92
2023-01-18T02:50:45.855Z,-11.77
2023-01-18T02:53:50.351Z,-13.28
2023-01-18T02:56:56.245Z,-13.73
2023-01-18T03:00:04.636Z,-13.70
2023-01-18T03:03:11.767Z,-14.01
2023-01-18T03:06:16.570Z,-13.57
2023-01-18T03:09:23.196Z,-13.93
2023-01-18T03:12:47.370Z,-13.89
2023-01-18T03:16:05.189Z,-13.06
2023-01-18T03:19:36.464Z,-13.06
2023-01-18T03:23:08.586Z,-13.09
2023-01-18T03:26:17.708Z,-12.68
2023-01-18T03:29:41.719Z,-12.30
2023-01-18T03:33:05.108Z,-12.86
2023-01-18T03:36:14.415Z,-12.72
2023-01-18T03:39:41.510Z,-12.80
2023-01-18T03:43:03.053Z,-12.69
2023-01-18T03:46:08.962Z,-12.59
2023-01-18T03:49:14.135Z,-13.10
2023-01-18T03:52:31.439Z,-12.99
2023-01-18T03:55:44.151Z,-12.96
2023-01-18T03:58:51.098Z,-12.86
2023-01-18T04:01:55.179Z,-12.12
2023-01-18T04:05:04.525Z,-12.19
2023-01-18T04:08:08.679Z,-12.59
2023-01-18T04:11:12.970Z,-12.63
2023-01-18T04:14:21.717Z,-12.31
2023-01-18T04:17:25.800Z,-12.49
2023-01-18T04:20:29.883Z,-13.00
2023-01-18T04:23:33.832Z,-12.88
2023-01-18T04:26:38.639Z,-12.17
2023-01-18T04:29:42.695Z,-12.17
2023-01-18T04:32:47.043Z,-12.01
2023-01-18T04:35:52.690Z,-12.24
2023-01-18T04:38:57.054Z,-12.24
2023-01-18T04:42:01.072Z,-11.82
2023-01-18T04:45:05.748Z,-12.03
2023-01-18T04:48:09.750Z,-12.26
2023-01-18T04:51:16.519Z,-12.20
2023-01-18T04:54:21.024Z,-12.26
2023-01-18T04:57:25.145Z,-12.24
2023-01-18T05:00:29.108Z,-12.60
2023-01-18T05:03:38.807Z,-12.39
2023-01-18T05:06:42.810Z,-12.27
2023-01-18T05:09:47.311Z,-12.04
2023-01-18T05:12:51.537Z,-12.83
2023-01-18T05:15:56.701Z,-12.70
2023-01-18T05:19:00.600Z,-12.47
2023-01-18T05:22:04.597Z,-12.94
2023-01-18T05:25:09.275Z,-12.64
2023-01-18T05:28:13.296Z,-12.39
2023-01-18T05:31:21.934Z,-12.49
2023-01-18T05:34:26.071Z,-12.64
2023-01-18T05:37:30.001Z,-12.84
2023-01-18T05:40:34.188Z,-13.17
2023-01-18T05:43:39.064Z,-13.33
2023-01-18T05:46:44.336Z,-12.68
2023-01-18T05:49:48.196Z,-12.66
2023-01-18T05:52:52.175Z,-12.75
2023-01-18T05:56:01.635Z,-12.63
2023-01-18T05:59:06.619Z,-13.09
2023-01-18T06:02:10.609Z,-13.31
2023-01-18T06:05:14.803Z,-13.72
2023-01-18T06:08:19.977Z,-13.73
2023-01-18T06:11:24.640Z,-13.68
2023-01-18T06:14:29.025Z,-13.75
2023-01-18T06:17:34.888Z,-13.76
2023-01-18T06:20:38.463Z,-13.79
2023-01-18T06:23:42.478Z,-13.71
2023-01-18T06:26:46.428Z,-13.55
2023-01-18T06:29:51.051Z,-13.58
2023-01-18T06:32:55.193Z,-13.39
2023-01-18T06:35:59.430Z,-13.53
2023-01-18T06:39:04.698Z,-13.43
2023-01-18T06:42:08.797Z,-13.58
2023-01-18T06:45:12.822Z,-13.57
2023-01-18T06:48:16.818Z,-13.82
2023-01-18T06:51:22.753Z,-14.28
2023-01-18T06:54:26.855Z,-14.86
2023-01-18T06:57:30.967Z,-14.31
2023-01-18T07:00:35.720Z,-14.33
2023-01-18T07:03:40.091Z,-14.43
2023-01-18T07:06:44.202Z,-14.37
2023-01-18T07:09:48.198Z,-14.56
2023-01-18T07:12:52.399Z,-14.85
2023-01-18T07:16:01.125Z,-14.53
2023-01-18T07:19:06.094Z,-14.75
2023-01-18T07:22:10.350Z,-14.49
2023-01-18T07:25:14.552Z,-14.54
2023-01-18T07:28:18.726Z,-14.71
2023-01-18T07:31:24.552Z,-14.86
2023-01-18T07:34:28.506Z,-14.79
2023-01-18T07:37:34.680Z,-14.57
2023-01-18T07:40:38.631Z,-14.61
2023-01-18T07:43:44.500Z,-14.86
2023-01-18T07:46:48.478Z,-15.23
2023-01-18T07:49:54.026Z,-14.77
2023-01-18T07:52:59.559Z,-14.96
2023-01-18T07:56:07.292Z,-14.84
2023-01-18T07:59:11.246Z,-14.82
2023-01-18T08:02:15.397Z,-14.77
2023-01-18T08:05:24.678Z,-15.17
2023-01-18T08:08:29.748Z,-15.12
2023-01-18T08:11:33.779Z,-15.19
2023-01-18T08:14:38.221Z,-14.91
2023-01-18T08:17:44.584Z,-15.08
2023-01-18T08:20:55.303Z,-15.23
2023-01-18T08:23:59.411Z,-15.40
2023-01-18T08:27:03.543Z,-15.17
2023-01-18T08:30:09.159Z,-15.15
2023-01-18T08:33:13.955Z,-15.18
2023-01-18T08:36:28.496Z,-14.94
2023-01-18T08:39:32.565Z,-14.84
2023-01-18T08:42:36.484Z,-14.94
2023-01-18T08:45:42.124Z,-14.81
2023-01-18T08:48:45.783Z,-14.66
2023-01-18T08:51:49.951Z,-15.21
2023-01-18T08:54:53.932Z,-14.79
2023-01-18T08:57:59.418Z,-14.78
2023-01-18T09:01:07.571Z,-14.99
2023-01-18T09:04:11.603Z,-14.92
2023-01-18T09:07:16.923Z,-15.14
2023-01-18T09:10:22.058Z,-15.37
2023-01-18T09:13:26.157Z,-15.17
2023-01-18T09:16:32.490Z,-15.75
2023-01-18T09:19:37.148Z,-15.23
2023-01-18T09:22:43.465Z,-14.95
2023-01-18T09:25:47.422Z,-15.33
2023-01-18T09:28:53.323Z,-15.25
2023-01-18T09:31:57.258Z,-15.22
2023-01-18T09:35:01.895Z,-15.38
2023-01-18T09:38:08.230Z,-15.25
2023-01-18T09:41:32.925Z,-15.31
2023-01-18T09:44:41.951Z,-15.18
2023-01-18T09:47:48.497Z,-15.04
2023-01-18T09:50:54.428Z,-15.46
2023-01-18T09:54:20.169Z,-15.51
2023-01-18T09:57:58.211Z,-15.48
2023-01-18T10:01:19.052Z,-15.46
2023-01-18T10:04:37.376Z,-15.38
2023-01-18T10:08:02.968Z,-15.43
2023-01-18T10:11:11.642Z,-15.33
2023-01-18T10:14:34.096Z,-16.12
2023-01-18T10:17:41.469Z,-15.79
2023-01-18T10:21:04.569Z,-15.98
2023-01-18T10:24:38.814Z,-16.36
2023-01-18T10:28:09.785Z,-16.66
2023-01-18T10:31:31.669Z,-16.55
2023-01-18T10:34:43.429Z,-16.79
2023-01-18T10:37:49.981Z,-16.63
2023-01-18T10:41:02.430Z,-16.94
2023-01-18T10:44:10.870Z,-16.89
2023-01-18T10:47:19.269Z,-17.15
2023-01-18T10:50:25.932Z,-17.41
2023-01-18T10:53:38.429Z,-17.41
2023-01-18T10:56:43.148Z,-17.88
2023-01-18T10:59:47.465Z,-17.33
2023-01-18T11:02:57.430Z,-17.36
2023-01-18T11:06:07.908Z,-17.64
2023-01-18T11:09:41.577Z,-17.58
2023-01-18T11:12:49.288Z,-17.34
2023-01-18T11:16:15.129Z,-17.88
2023-01-18T11:19:20.575Z,-17.88
2023-01-18T11:22:25.744Z,-17.97
2023-01-18T11:25:43.319Z,-18.28
2023-01-18T11:29:11.534Z,-17.84
2023-01-18T11:32:26.537Z,-17.26
2023-01-18T11:35:37.677Z,-16.62
2023-01-18T11:38:43.369Z,-16.34
2023-01-18T11:41:47.304Z,-16.03
2023-01-18T11:45:05.396Z,-16.10
2023-01-18T11:48:37.843Z,-16.30
2023-01-18T11:52:49.700Z,-16.17
2023-01-18T12:02:04.962Z,-16.20
2023-01-18T12:09:59.220Z,-16.56
2023-01-18T12:14:44.202Z,-16.53
2023-01-18T12:18:44.010Z,-16.49
2023-01-18T12:23:26.647Z,-16.46
2023-01-18T12:26:39.508Z,-16.24
2023-01-18T12:29:59.793Z,-16.50
2023-01-18T12:33:19.520Z,-16.03
2023-01-18T12:36:43.150Z,-15.97
2023-01-18T12:40:28.875Z,-16.25
2023-01-18T12:43:39.162Z,-16.15
2023-01-18T12:47:03.767Z,-16.42
2023-01-18T12:50:31.541Z,-16.89
2023-01-18T12:53:47.276Z,-16.37
2023-01-18T12:56:55.614Z,-16.33
2023-01-18T13:00:16.281Z,-16.11
2023-01-18T13:03:25.469Z,-16.32
2023-01-18T13:06:31.372Z,-16.31
2023-01-18T13:09:41.281Z,-16.50
2023-01-18T13:12:46.243Z,-16.61
2023-01-18T13:16:10.433Z,-16.01
2023-01-18T13:19:25.016Z,-16.28
2023-01-18T13:22:53.438Z,-16.25
2023-01-18T13:26:15.101Z,-16.25
2023-01-18T13:29:31.998Z,-16.11
2023-01-18T13:32:39.068Z,-16.58
2023-01-18T13:35:54.251Z,-16.39
2023-01-18T13:39:05.084Z,-16.22
2023-01-18T13:42:13.897Z,-16.25
2023-01-18T13:45:30.250Z,-16.26
2023-01-18T13:48:57.170Z,-16.38
2023-01-18T13:52:01.528Z,-16.71
2023-01-18T13:55:25.912Z,-16.37
2023-01-18T13:58:31.621Z,-16.32
2023-01-18T14:01:37.964Z,-16.32
2023-01-18T14:04:42.418Z,-16.21
2023-01-18T14:07:50.161Z,-16.28
2023-01-18T14:11:08.657Z,-16.03
2023-01-18T14:14:16.790Z,-16.46
2023-01-18T14:17:22.698Z,-16.35
2023-01-18T14:21:00.392Z,-16.16
2023-01-18T14:24:07.770Z,-15.97
2023-01-18T14:27:25.119Z,-15.68
2023-01-18T14:30:34.220Z,-16.04
2023-01-18T14:33:43.142Z,-15.94
2023-01-18T14:36:47.576Z,-16.34
2023-01-18T14:40:04.559Z,-16.41
2023-01-18T14:43:35.805Z,-15.94
2023-01-18T14:46:39.952Z,-15.89
2023-01-18T14:49:45.518Z,-16.01
2023-01-18T14:52:51.494Z,-16.19
2023-01-18T14:56:11.506Z,-15.89
2023-01-18T14:59:31.780Z,-16.09
2023-01-18T15:02:39.741Z,-15.96
2023-01-18T15:05:43.941Z,-16.27
2023-01-18T15:08:52.082Z,-15.79
2023-01-18T15:11:58.925Z,-15.86
2023-01-18T15:15:10.820Z,-16.03
2023-01-18T15:18:22.372Z,-16.45
2023-01-18T15:21:31.034Z,-16.46
2023-01-18T15:24:41.935Z,-16.22
2023-01-18T15:27:52.765Z,-16.04
2023-01-18T15:30:58.542Z,-15.88
2023-01-18T15:34:03.544Z,-15.89
2023-01-18T15:37:11.332Z,-16.07
2023-01-18T15:40:15.630Z,-15.99
2023-01-18T15:43:28.663Z,-15.86
2023-01-18T15:46:40.092Z,-15.95
2023-01-18T15:49:50.327Z,-16.28
2023-01-18T15:53:07.061Z,-16.17
2023-01-18T15:56:18.841Z,-16.11
2023-01-18T15:59:26.046Z,-15.97
2023-01-18T16:02:32.006Z,-15.98
2023-01-18T16:05:36.613Z,-15.96
2023-01-18T16:08:58.782Z,-16.03
2023-01-18T16:12:05.410Z,-15.88
2023-01-18T16:15:26.104Z,-15.66
2023-01-18T16:18:30.487Z,-15.88
2023-01-18T16:21:49.381Z,-16.30
2023-01-18T16:24:58.580Z,-16.72
2023-01-18T16:28:03.883Z,-17.13
2023-01-18T16:31:08.280Z,-17.05
2023-01-18T16:34:19.680Z,-17.64
2023-01-18T16:37:24.191Z,-17.97
2023-01-18T16:40:29.660Z,-18.00
2023-01-18T16:43:36.678Z,-17.95
2023-01-18T16:46:40.456Z,-18.31
2023-01-18T16:49:45.798Z,-18.23
2023-01-18T16:52:49.662Z,-18.30
2023-01-18T16:55:54.331Z,-18.19
2023-01-18T16:58:58.560Z,-18.82
2023-01-18T17:02:02.689Z,-18.25
2023-01-18T17:05:07.431Z,-18.49
2023-01-18T17:08:15.848Z,-18.56
2023-01-18T17:11:19.943Z,-18.65
2023-01-18T17:14:23.898Z,-18.54
2023-01-18T17:17:27.938Z,-18.54
2023-01-18T17:20:32.669Z,-18.57
2023-01-18T17:23:36.673Z,-18.54
2023-01-18T17:26:41.895Z,-18.22
2023-01-18T17:29:46.093Z,-18.02
2023-01-18T17:32:51.052Z,-17.63
2023-01-18T17:35:56.295Z,-17.30
2023-01-18T17:39:00.280Z,-17.52
2023-01-18T17:42:04.539Z,-17.96
2023-01-18T17:45:10.867Z,-16.79
2023-01-18T17:48:15.254Z,-16.45
2023-01-18T17:51:19.652Z,-16.31
2023-01-18T17:54:23.762Z,-16.62
2023-01-18T17:57:29.911Z,-17.08
2023-01-18T18:00:33.984Z,-16.78
2023-01-18T18:03:44.018Z,-16.51
2023-01-18T18:06:54.465Z,-16.39
2023-01-18T18:10:01.858Z,-16.41
2023-01-18T18:13:07.000Z,-15.97
2023-01-18T18:16:18.254Z,-16.09
2023-01-18T18:19:22.652Z,-16.09
2023-01-18T18:22:27.088Z,-15.91
2023-01-18T18:25:31.125Z,-16.30
2023-01-18T18:28:38.270Z,-16.85
2023-01-18T18:31:42.978Z,-17.03
2023-01-18T18:34:47.594Z,-17.42
2023-01-18T18:37:52.726Z,-17.37
2023-01-18T18:41:03.210Z,-17.29
2023-01-18T18:44:07.538Z,-17.33
2023-01-18T18:47:14.271Z,-17.27
2023-01-18T18:50:18.657Z,-17.40
2023-01-18T18:53:29.664Z,-17.69
2023-01-18T18:56:42.235Z,-17.55
2023-01-18T18:59:46.197Z,-17.57
2023-01-18T19:02:50.271Z,-17.74
2023-01-18T19:05:54.347Z,-17.75
2023-01-18T19:08:59.312Z,-17.85
2023-01-18T19:12:03.302Z,-18.02
2023-01-18T19:15:08.016Z,-17.01
2023-01-18T19:18:12.557Z,-16.46
2023-01-18T19:21:16.841Z,-16.51
2023-01-18T19:24:20.843Z,-16.01
2023-01-18T19:27:25.447Z,-16.29
2023-01-18T19:30:31.410Z,-16.51
2023-01-18T19:33:39.212Z,-16.37
2023-01-18T19:36:43.384Z,-16.16
2023-01-18T19:39:47.934Z,-16.04
2023-01-18T19:43:01.537Z,-16.01
2023-01-18T19:46:08.190Z,-15.96
2023-01-18T19:49:12.577Z,-16.11
2023-01-18T19:52:16.679Z,-16.43
2023-01-18T19:55:22.782Z,-16.48
2023-01-18T19:58:27.947Z,-16.41
2023-01-18T20:01:36.820Z,-16.18
2023-01-18T20:04:43.909Z,-16.22
2023-01-18T20:07:48.804Z,-16.32
2023-01-18T20:10:55.166Z,-16.27
2023-01-18T20:13:59.436Z,-16.08
2023-01-18T20:17:03.266Z,-15.66
2023-01-18T20:20:08.379Z,-15.74
2023-01-18T20:23:12.211Z,-15.56
2023-01-18T20:26:27.728Z,-15.46
2023-01-18T20:29:39.063Z,-15.98
2023-01-18T20:32:43.545Z,-15.72
2023-01-18T20:35:47.600Z,-15.89
2023-01-18T20:38:52.709Z,-16.07
2023-01-18T20:41:56.811Z,-16.24
2023-01-18T20:45:01.591Z,-15.99
2023-01-18T20:48:07.885Z,-16.09
2023-01-18T20:51:12.408Z,-16.20
2023-01-18T20:54:16.490Z,-15.95
2023-01-18T20:57:21.499Z,-15.91
2023-01-18T21:00:25.403Z,-15.60
2023-01-18T21:03:29.928Z,-15.61
2023-01-18T21:06:33.921Z,-15.62
2023-01-18T21:09:38.384Z,-15.58
2023-01-18T21:12:42.129Z,-15.53
2023-01-18T21:15:47.476Z,-15.50
2023-01-18T21:18:53.473Z,-15.39
2023-01-18T21:21:57.999Z,-15.58
2023-01-18T21:25:01.855Z,-15.53
2023-01-18T21:28:06.887Z,-15.71
2023-01-18T21:31:10.830Z,-15.78
2023-01-18T21:34:15.477Z,-15.31
2023-01-18T21:37:19.319Z,-15.40
2023-01-18T21:40:24.262Z,-15.22
2023-01-18T21:43:46.499Z,-15.40
2023-01-18T21:46:52.699Z,-15.19
2023-01-18T21:50:17.895Z,-15.27
2023-01-18T21:53:41.134Z,-15.26
2023-01-18T21:56:46.159Z,-15.54
2023-01-18T21:59:51.247Z,-15.26
2023-01-18T22:02:55.043Z,-15.65
2023-01-18T22:06:02.137Z,-15.96
2023-01-18T22:09:07.479Z,-15.74
2023-01-18T22:12:11.841Z,-15.93
2023-01-18T22:15:20.074Z,-15.87
2023-01-18T22:18:24.850Z,-15.98
2023-01-18T22:21:29.438Z,-15.66
2023-01-18T22:24:34.032Z,-15.95
2023-01-18T22:27:38.116Z,-16.18
2023-01-18T22:30:42.716Z,-16.23
2023-01-18T22:33:46.490Z,-16.38
2023-01-18T22:36:51.621Z,-15.89
2023-01-18T22:39:55.773Z,-16.10
2023-01-18T22:43:00.054Z,-15.73
2023-01-18T22:46:05.247Z,-15.79
2023-01-18T22:49:09.589Z,-15.79
2023-01-18T22:52:13.380Z,-15.69
2023-01-18T22:55:17.756Z,-15.79
2023-01-18T22:58:24.902Z,-15.86
2023-01-18T23:01:32.266Z,-15.79
2023-01-18T23:04:36.461Z,-16.22
2023-01-18T23:07:41.019Z,-16.06
2023-01-18T23:10:44.764Z,-15.56
2023-01-18T23:14:10.103Z,-15.71
2023-01-18T23:17:32.895Z,-15.61
2023-01-18T23:20:37.894Z,-15.44
2023-01-18T23:23:41.683Z,-15.58
2023-01-18T23:26:46.361Z,-15.40
2023-01-18T23:29:57.183Z,-15.25
2023-01-18T23:33:01.598Z,-15.41
2023-01-18T23:36:06.314Z,-15.19
2023-01-18T23:39:28.693Z,-15.37
2023-01-18T23:42:50.656Z,-15.27
2023-01-18T23:46:13.197Z,-15.35
2023-01-18T23:49:35.436Z,-15.20
2023-01-18T23:52:58.068Z,-15.15
2023-01-18T23:56:01.948Z,-15.07
2023-01-18T23:59:06.201Z,-15.06
